Norton, KS

7:05 AM CST on February 08, 2016 (GMT -0600)
NonFedAWOS | | Change Station
CLOSE
Current Station
Personal Weather Station
Location: Norton, KS
Elevation: 2382 ft
Nearby Weather Stations

Elev 2382 ft 39.85 °N, 99.89 °W | Updated 25 minutes ago

Clear
Clear
25 °F
Feels Like 10 °F
N
23
Wind Variable Wind from WNW
Gusts 28.0 mph

Today
High -- | Low -- °F
--% Chance of Precip.
Yesterday
High -- | Low -- °F
Precip. -- in
Pressure 30.35 in
Visibility 10.0 miles
Clouds Clear
Windchill 10 °F
Dew Point 12 °F
Humidity 58%
Rainfall in
Snow Depth Not available.
7:40 AM 6:06 PM
Waning Crescent, 0% visible
METAR KHLC 081253Z AUTO 31020G27KT 10SM CLR M02/M10 A3029 RMK AO2 PK WND 31029/1233 SLP276 T10221100
Pressure 30.35 in
Visibility 10.0 miles
Clouds Clear
Windchill 10 °F
Dew Point 12 °F
Humidity 58%
Rainfall in
Snow Depth Not available.
7:40 AM 6:06 PM
Waning Crescent, 0% visible
METAR KHLC 081253Z AUTO 31020G27KT 10SM CLR M02/M10 A3029 RMK AO2 PK WND 31029/1233 SLP276 T10221100

10-Day Weather Forecast

Almanac

Astronomy

Feb. 08, 2016 Rise Set
Actual Time
Civil Twilight
Nautical Twilight
Astronomical Twilight
Moon
Length of Visible Light
Length of Day
Tomorrow will be .
, % of the Moon is Illuminated

Today's Extremes

State Highs State Lows

Community

WunderPhotos

Upload Photos

1,891,434 photos uploaded!

WunderBlog® & News

Nearby

Air Quality

  Air Quality AQ Index Pollutant
Not available.

Snow Depth

Station Depth Elevation

Earthquake Activity

City Distance Mag. Time & Date
Minimum magnitude displayed is 2.5.

Coastal Water Temperatures

Place Temperature

Stations

Nearby Weather Stations

Station Location Temp. Windchill Dew Point Humidity Wind Precip. Elev Updated Type
                   

Watches & Warnings

There are currently no watches in effect.